Al Jahrah, Kuwait
Current Conditions -  °F | °C
As of 11:55 PM on Monday 20 Oct 2014 (Local Time) from KQGV Reporting Station
Sand / Dust Storm Sand / Dust Storm  
Wind Chill: 86°   Ceiling: 5000
Heat Index: 86°   Visibility: 2.5mi
Dew Point: 45°   Wind: 7mph
Humidity: 23%   Direction: 350°N
Pressure: 29.79"   Gusts: 15mph
Location:  29.33°N, 47.67°E
Report Text: KQGV 202055Z 35006G13KT 4000 BLDU BKN050 BKN150 30/07 A2979 RMK SLPNO QNH1009MB PA +586 50010
Loading
Personal Weather Stations






























Interactive Weather Map
Tropical Storm Tracking
New forecast layout! Learn more

10-Day Weather Forecast

Advertisements
Track Severe Weather on mobile